createdAt,value
2022-07-25T00:01:01.507Z,98142.66
2022-07-25T00:03:29.918Z,98143.09
2022-07-25T00:05:57.511Z,98147.31
2022-07-25T00:08:25.020Z,98142.91
2022-07-25T00:10:52.003Z,98140.56
2022-07-25T00:13:20.502Z,98143.09
2022-07-25T00:15:47.564Z,98146.47
2022-07-25T00:18:14.869Z,98140.59
2022-07-25T00:20:42.321Z,98138.47
2022-07-25T00:23:09.504Z,98145.84
2022-07-25T00:25:36.517Z,98141.63
2022-07-25T00:28:04.252Z,98140.34
2022-07-25T00:30:31.856Z,98151.97
2022-07-25T00:33:00.873Z,98142.06
2022-07-25T00:35:27.844Z,98138.03
2022-07-25T00:37:55.618Z,98146.47
2022-07-25T00:40:23.152Z,98147.09
2022-07-25T00:42:51.444Z,98134.66
2022-07-25T00:45:18.659Z,98130.03
2022-07-25T00:47:45.914Z,98128.72
2022-07-25T00:50:12.901Z,98119.88
2022-07-25T00:52:42.178Z,98130.41
2022-07-25T00:55:09.336Z,98140.75
2022-07-25T00:57:36.605Z,98141.19
2022-07-25T01:00:08.196Z,98132.94
2022-07-25T01:02:35.697Z,98139.47
2022-07-25T01:05:04.367Z,98140.97
2022-07-25T01:07:32.624Z,98143.28
2022-07-25T01:10:00.205Z,98141.41
2022-07-25T01:12:27.684Z,98145.38
2022-07-25T01:14:56.804Z,98140.97
2022-07-25T01:17:24.615Z,98136.31
2022-07-25T01:19:53.347Z,98136.94
2022-07-25T01:22:21.392Z,98131.88
2022-07-25T01:24:48.338Z,98138.88
2022-07-25T01:27:17.337Z,98132.97
2022-07-25T01:29:45.259Z,98132.53
2022-07-25T01:32:13.010Z,98135.91
2022-07-25T01:34:39.950Z,98124.28
2022-07-25T01:37:07.471Z,98120.91
2022-07-25T01:39:34.409Z,98109.72
2022-07-25T01:42:01.695Z,98117.09
2022-07-25T01:44:29.028Z,98125.75
2022-07-25T01:46:56.250Z,98126.75
2022-07-25T01:49:23.200Z,98118.09
2022-07-25T01:51:50.858Z,98120.16
2022-07-25T01:54:17.782Z,98117.00
2022-07-25T01:56:46.942Z,98110.63
2022-07-25T01:59:17.712Z,98114.03
2022-07-25T02:01:45.029Z,98108.31
2022-07-25T02:04:12.895Z,98111.69
2022-07-25T02:06:42.133Z,98119.28
2022-07-25T02:09:09.889Z,98117.56
2022-07-25T02:11:37.280Z,98113.78
2022-07-25T02:14:05.305Z,98117.16
2022-07-25T02:16:32.584Z,98110.00
2022-07-25T02:18:59.873Z,98115.03
2022-07-25T02:21:27.693Z,98123.69
2022-07-25T02:23:55.132Z,98119.44
2022-07-25T02:26:22.104Z,98115.44
2022-07-25T02:28:50.653Z,98106.09
2022-07-25T02:31:17.855Z,98105.41
2022-07-25T02:33:46.236Z,98112.59
2022-07-25T02:36:13.868Z,98108.78
2022-07-25T02:38:41.207Z,98104.06
2022-07-25T02:41:08.430Z,98107.41
2022-07-25T02:43:36.451Z,98108.63
2022-07-25T02:46:03.719Z,98113.41
2022-07-25T02:48:31.077Z,98105.00
2022-07-25T02:50:58.787Z,98116.16
2022-07-25T02:53:54.384Z,98116.09
2022-07-25T02:56:14.229Z,98104.09
2022-07-25T02:58:41.969Z,98112.75
2022-07-25T03:01:09.301Z,98112.13
2022-07-25T03:03:36.426Z,98111.09
2022-07-25T03:06:04.421Z,98122.31
2022-07-25T03:08:31.373Z,98122.31
2022-07-25T03:10:58.917Z,98130.09
2022-07-25T03:13:26.678Z,98123.59
2022-07-25T03:15:53.899Z,98127.16
2022-07-25T03:18:20.882Z,98129.72
2022-07-25T03:20:49.152Z,98130.09
2022-07-25T03:23:16.092Z,98125.19
2022-07-25T03:25:43.768Z,98128.13
2022-07-25T03:28:10.917Z,98128.13
2022-07-25T03:30:38.203Z,98128.50
2022-07-25T03:33:05.149Z,98122.59
2022-07-25T03:35:32.557Z,98127.69
2022-07-25T03:38:02.287Z,98132.53
2022-07-25T03:40:30.592Z,98128.06
2022-07-25T03:42:58.047Z,98126.41
2022-07-25T03:45:25.815Z,98130.19
2022-07-25T03:47:54.705Z,98123.72
2022-07-25T03:50:21.962Z,98139.53
2022-07-25T03:52:48.938Z,98139.78
2022-07-25T03:55:16.559Z,98137.28
2022-07-25T03:57:43.496Z,98137.09
2022-07-25T04:00:14.060Z,98135.81
2022-07-25T04:02:41.970Z,98138.84
2022-07-25T04:05:09.729Z,98144.16
2022-07-25T04:07:38.235Z,98144.00
2022-07-25T04:10:06.667Z,98144.47
2022-07-25T04:12:34.629Z,98147.50
2022-07-25T04:15:02.132Z,98138.88
2022-07-25T04:17:29.430Z,98139.97
2022-07-25T04:19:57.486Z,98141.91
2022-07-25T04:22:25.209Z,98142.19
2022-07-25T04:24:52.124Z,98141.78
2022-07-25T04:27:20.020Z,98143.50
2022-07-25T04:29:46.956Z,98145.63
2022-07-25T04:32:15.057Z,98144.78
2022-07-25T04:34:45.010Z,98144.34
2022-07-25T04:37:12.473Z,98143.53
2022-07-25T04:39:39.804Z,98147.09
2022-07-25T04:42:07.259Z,98154.31
2022-07-25T04:44:34.252Z,98151.97
2022-07-25T04:47:04.071Z,98155.56
2022-07-25T04:49:31.022Z,98150.72
2022-07-25T04:51:58.232Z,98153.47
2022-07-25T04:54:25.644Z,98149.25
2022-07-25T04:56:52.889Z,98153.06
2022-07-25T04:59:19.844Z,98160.88
2022-07-25T05:01:49.124Z,98156.22
2022-07-25T05:04:16.101Z,98155.16
2022-07-25T05:06:43.334Z,98166.94
2022-07-25T05:09:11.087Z,98158.69
2022-07-25T05:11:41.462Z,98157.38
2022-07-25T05:14:11.138Z,98160.13
2022-07-25T05:16:38.147Z,98155.88
2022-07-25T05:19:05.508Z,98159.84
2022-07-25T05:21:33.647Z,98156.22
2022-07-25T05:24:01.179Z,98158.94
2022-07-25T05:26:28.164Z,98160.84
2022-07-25T05:28:56.364Z,98163.41
2022-07-25T05:31:23.382Z,98156.81
2022-07-25T05:33:51.343Z,98151.94
2022-07-25T05:36:18.542Z,98159.31
2022-07-25T05:38:46.068Z,98163.91
2022-07-25T05:41:13.936Z,98157.53
2022-07-25T05:43:46.177Z,98159.59
2022-07-25T05:46:15.396Z,98159.72
2022-07-25T05:48:43.625Z,98154.13
2022-07-25T05:51:12.624Z,98151.50
2022-07-25T05:53:40.250Z,98144.03
2022-07-25T05:56:07.690Z,98139.69
2022-07-25T05:58:34.672Z,98154.44
2022-07-25T06:01:04.267Z,98140.66
2022-07-25T06:03:31.338Z,98141.06
2022-07-25T06:05:58.636Z,98140.69
2022-07-25T06:08:29.175Z,98141.19
2022-07-25T06:10:58.171Z,98142.56
2022-07-25T06:13:26.232Z,98141.94
2022-07-25T06:15:55.810Z,98129.38
2022-07-25T06:18:24.036Z,98139.50
2022-07-25T06:20:51.622Z,98142.59
2022-07-25T06:23:18.970Z,98142.81
2022-07-25T06:25:50.614Z,98145.97
2022-07-25T06:28:18.292Z,98142.72
2022-07-25T06:30:46.781Z,98146.22
2022-07-25T06:33:14.242Z,98150.53
2022-07-25T06:35:41.604Z,98145.97
2022-07-25T06:38:08.553Z,98147.72
2022-07-25T06:40:36.357Z,98140.63
2022-07-25T06:43:03.462Z,98143.84
2022-07-25T06:45:30.896Z,98134.81
2022-07-25T06:47:58.059Z,98142.13
2022-07-25T06:50:25.599Z,98138.00
2022-07-25T06:52:54.574Z,98138.97
2022-07-25T06:55:22.445Z,98132.75
2022-07-25T06:57:49.481Z,98133.84
2022-07-25T07:00:17.206Z,98137.44
2022-07-25T07:03:03.497Z,98140.59
2022-07-25T07:05:33.670Z,98129.75
2022-07-25T07:08:01.373Z,98125.06
2022-07-25T07:10:29.297Z,98128.41
2022-07-25T07:13:07.996Z,98125.13
2022-07-25T07:15:37.132Z,98121.28
2022-07-25T07:18:06.883Z,98116.22
2022-07-25T07:20:34.273Z,98116.97
2022-07-25T07:23:01.659Z,98116.19
2022-07-25T07:25:30.663Z,98111.88
2022-07-25T07:27:57.625Z,98109.88
2022-07-25T07:30:37.640Z,98111.25
2022-07-25T07:33:12.876Z,98106.81
2022-07-25T07:35:40.729Z,98107.13
2022-07-25T07:38:08.049Z,98103.53
2022-07-25T07:40:35.011Z,98098.47
2022-07-25T07:43:04.164Z,98103.16
2022-07-25T07:45:31.398Z,98100.53
2022-07-25T07:47:58.612Z,98103.94
2022-07-25T07:50:27.854Z,98101.84
2022-07-25T07:52:56.493Z,98098.41
2022-07-25T07:55:43.129Z,98087.72
2022-07-25T07:58:11.035Z,98102.00
2022-07-25T08:00:39.587Z,98101.59
2022-07-25T08:03:11.637Z,98100.88
2022-07-25T08:05:44.617Z,98100.44
2022-07-25T08:08:15.458Z,98094.38
2022-07-25T08:10:47.695Z,98084.34
2022-07-25T08:13:16.289Z,98085.06
2022-07-25T08:15:45.348Z,98083.53
2022-07-25T08:18:17.219Z,98078.88
2022-07-25T08:20:49.052Z,98076.94
2022-07-25T08:23:20.364Z,98072.38
2022-07-25T08:25:48.439Z,98081.31
2022-07-25T08:28:15.556Z,98077.09
2022-07-25T08:30:43.524Z,98075.97
2022-07-25T08:33:13.741Z,98068.53
2022-07-25T08:35:47.652Z,98066.06
2022-07-25T08:38:15.067Z,98070.38
2022-07-25T08:40:42.055Z,98066.91
2022-07-25T08:43:14.414Z,98061.47
2022-07-25T08:45:54.606Z,98069.59
2022-07-25T08:48:26.010Z,98061.03
2022-07-25T08:50:54.917Z,98062.81
2022-07-25T08:53:33.171Z,98060.69
2022-07-25T08:56:10.400Z,98051.00
2022-07-25T08:58:44.150Z,98050.47
2022-07-25T09:01:13.964Z,98049.97
2022-07-25T09:03:45.432Z,98041.94
2022-07-25T09:06:21.893Z,98052.59
2022-07-25T09:08:58.056Z,98057.09
2022-07-25T09:11:37.806Z,98042.84
2022-07-25T09:14:09.744Z,98043.13
2022-07-25T09:16:44.347Z,98045.13
2022-07-25T09:19:21.804Z,98037.63
2022-07-25T09:22:02.199Z,98039.28
2022-07-25T09:24:31.934Z,98032.31
2022-07-25T09:27:02.503Z,98032.88
2022-07-25T09:29:34.943Z,98021.38
2022-07-25T09:32:13.731Z,98037.53
2022-07-25T09:34:43.085Z,98037.59
2022-07-25T09:37:12.635Z,98022.88
2022-07-25T09:39:46.114Z,98018.41
2022-07-25T09:42:22.079Z,98022.59
2022-07-25T09:45:01.830Z,98023.44
2022-07-25T09:47:31.618Z,98017.88
2022-07-25T09:49:58.769Z,98017.88
2022-07-25T09:52:26.412Z,98013.13
2022-07-25T09:54:55.828Z,98014.28
2022-07-25T09:57:25.864Z,98008.69
2022-07-25T09:59:54.109Z,98012.03
2022-07-25T10:02:46.160Z,97998.09
2022-07-25T10:05:56.710Z,97998.66
2022-07-25T10:08:25.551Z,97997.81
2022-07-25T10:10:52.685Z,97990.25
2022-07-25T10:13:32.053Z,97985.25
2022-07-25T10:15:59.356Z,97980.19
2022-07-25T10:18:29.119Z,97975.19
2022-07-25T10:21:25.518Z,97964.53
2022-07-25T10:24:00.260Z,97963.63
2022-07-25T10:26:29.972Z,97963.84
2022-07-25T10:28:58.405Z,97957.97
2022-07-25T10:31:29.243Z,97962.13
2022-07-25T10:33:59.707Z,97962.06
2022-07-25T10:36:32.526Z,97955.91
2022-07-25T10:39:02.470Z,97953.63
2022-07-25T10:41:30.051Z,97952.09
2022-07-25T10:44:01.278Z,97946.53
2022-07-25T10:46:31.245Z,97943.13
2022-07-25T10:49:03.490Z,97938.63
2022-07-25T10:51:41.595Z,97945.75
2022-07-25T10:54:18.859Z,97934.22
2022-07-25T10:56:56.027Z,97922.59
2022-07-25T10:59:29.156Z,97926.09
2022-07-25T11:01:57.224Z,97926.22
2022-07-25T11:04:24.372Z,97928.88
2022-07-25T11:06:51.661Z,97914.97
2022-07-25T11:09:29.407Z,97915.34
2022-07-25T11:11:59.701Z,97907.25
2022-07-25T11:14:42.991Z,97914.50
2022-07-25T11:17:20.609Z,97908.91
2022-07-25T11:20:01.614Z,97904.63
2022-07-25T11:22:31.172Z,97900.53
2022-07-25T11:24:59.714Z,97890.31
2022-07-25T11:27:33.171Z,97883.34
2022-07-25T11:30:07.771Z,97886.31
2022-07-25T11:32:45.020Z,97885.06
2022-07-25T11:35:15.278Z,97870.50
2022-07-25T11:37:48.902Z,97876.50
2022-07-25T11:40:16.690Z,97876.00
2022-07-25T11:42:46.146Z,97869.56
2022-07-25T11:45:32.046Z,97869.94
2022-07-25T11:48:13.790Z,97865.28
2022-07-25T11:50:45.526Z,97864.25
2022-07-25T11:53:16.070Z,97866.06
2022-07-25T11:55:46.523Z,97861.03
2022-07-25T11:58:14.668Z,97860.06
2022-07-25T12:00:50.136Z,97864.16
2022-07-25T12:03:21.069Z,97860.75
2022-07-25T12:05:49.881Z,97855.31
2022-07-25T12:08:19.675Z,97858.31
2022-07-25T12:10:49.282Z,97849.91
2022-07-25T12:13:24.932Z,97838.66
2022-07-25T12:15:52.124Z,97840.84
2022-07-25T12:18:19.475Z,97837.19
2022-07-25T12:20:47.766Z,97835.84
2022-07-25T12:23:15.214Z,97834.56
2022-07-25T12:25:46.280Z,97826.69
2022-07-25T12:28:14.454Z,97830.88
2022-07-25T12:30:44.457Z,97830.34
2022-07-25T12:33:13.095Z,97831.78
2022-07-25T12:35:44.895Z,97816.69
2022-07-25T12:38:12.476Z,97815.28
2022-07-25T12:40:39.415Z,97806.19
2022-07-25T12:43:07.923Z,97797.91
2022-07-25T12:45:34.978Z,97804.84
2022-07-25T12:48:02.261Z,97798.31
2022-07-25T12:50:30.223Z,97797.22
2022-07-25T12:52:57.653Z,97798.97
2022-07-25T12:55:24.883Z,97798.19
2022-07-25T12:57:53.971Z,97793.28
2022-07-25T13:00:23.235Z,97789.97
2022-07-25T13:02:53.346Z,97787.09
2022-07-25T13:05:21.292Z,97782.47
2022-07-25T13:07:49.562Z,97776.22
2022-07-25T13:10:19.176Z,97771.69
2022-07-25T13:12:50.254Z,97775.84
2022-07-25T13:15:21.137Z,97774.91
2022-07-25T13:17:48.608Z,97768.75
2022-07-25T13:20:15.869Z,97757.78
2022-07-25T13:22:43.504Z,97755.78
2022-07-25T13:25:10.731Z,97757.53
2022-07-25T13:27:39.567Z,97747.06
2022-07-25T13:30:08.223Z,97755.50
2022-07-25T13:32:36.832Z,97753.78
2022-07-25T13:35:04.751Z,97748.34
2022-07-25T13:37:33.358Z,97741.41
2022-07-25T13:40:00.579Z,97737.78
2022-07-25T13:42:30.077Z,97737.59
2022-07-25T13:44:57.628Z,97742.38
2022-07-25T13:47:29.987Z,97740.50
2022-07-25T13:49:58.541Z,97739.41
2022-07-25T13:52:25.495Z,97733.63
2022-07-25T13:54:52.759Z,97729.81
2022-07-25T13:57:20.122Z,97735.72
2022-07-25T13:59:47.440Z,97732.66
2022-07-25T14:02:14.776Z,97733.19
2022-07-25T14:04:42.615Z,97729.44
2022-07-25T14:07:09.740Z,97716.94
2022-07-25T14:09:38.695Z,97717.09
2022-07-25T14:12:06.230Z,97714.03
2022-07-25T14:14:33.901Z,97713.47
2022-07-25T14:17:01.205Z,97709.84
2022-07-25T14:19:28.634Z,97708.88
2022-07-25T14:21:55.667Z,97704.66
2022-07-25T14:24:25.529Z,97710.25
2022-07-25T14:26:54.075Z,97705.50
2022-07-25T14:29:27.214Z,97700.28
2022-07-25T14:31:59.638Z,97700.78
2022-07-25T14:34:26.687Z,97699.25
2022-07-25T14:36:53.939Z,97694.59
2022-07-25T14:39:21.357Z,97694.19
2022-07-25T14:41:49.482Z,97686.91
2022-07-25T14:44:16.542Z,97683.97
2022-07-25T14:46:44.461Z,97677.47
2022-07-25T14:49:15.650Z,97679.31
2022-07-25T14:51:46.760Z,97677.84
2022-07-25T14:54:14.820Z,97686.03
2022-07-25T14:56:42.921Z,97692.75
2022-07-25T14:59:11.207Z,97673.25
2022-07-25T15:01:39.282Z,97680.31
2022-07-25T15:04:06.647Z,97672.84
2022-07-25T15:06:34.130Z,97670.53
2022-07-25T15:09:01.503Z,97665.78
2022-07-25T15:11:28.542Z,97674.41
2022-07-25T15:13:56.200Z,97660.50
2022-07-25T15:16:24.027Z,97666.22
2022-07-25T15:19:15.253Z,97663.72
2022-07-25T15:21:39.348Z,97661.91
2022-07-25T15:24:06.774Z,97656.34
2022-07-25T15:26:34.221Z,97653.59
2022-07-25T15:29:01.809Z,97652.28
2022-07-25T15:31:29.397Z,97647.75
2022-07-25T15:33:56.500Z,97646.34
2022-07-25T15:36:28.958Z,97640.94
2022-07-25T15:38:57.522Z,97650.47
2022-07-25T15:41:24.539Z,97649.63
2022-07-25T15:43:52.320Z,97654.00
2022-07-25T15:46:19.730Z,97653.09
2022-07-25T15:48:47.057Z,97642.91
2022-07-25T15:51:16.951Z,97645.97
2022-07-25T15:53:46.355Z,97650.78
2022-07-25T15:56:16.831Z,97649.56
2022-07-25T15:58:44.837Z,97649.56
2022-07-25T16:01:12.764Z,97635.94
2022-07-25T16:03:40.180Z,97644.56
2022-07-25T16:06:07.299Z,97644.09
2022-07-25T16:08:36.290Z,97647.09
2022-07-25T16:11:04.505Z,97640.94
2022-07-25T16:13:31.998Z,97632.88
2022-07-25T16:15:59.293Z,97640.69
2022-07-25T16:18:27.071Z,97626.31
2022-07-25T16:20:54.243Z,97626.75
2022-07-25T16:23:24.513Z,97635.06
2022-07-25T16:25:51.608Z,97633.22
2022-07-25T16:28:19.434Z,97639.69
2022-07-25T16:30:46.614Z,97625.06
2022-07-25T16:33:14.237Z,97625.09
2022-07-25T16:35:41.326Z,97631.44
2022-07-25T16:38:10.068Z,97624.28
2022-07-25T16:40:37.067Z,97623.16
2022-07-25T16:43:04.756Z,97630.06
2022-07-25T16:45:31.958Z,97631.22
2022-07-25T16:47:59.364Z,97632.56
2022-07-25T16:50:26.646Z,97627.53
2022-07-25T16:52:58.322Z,97631.84
2022-07-25T16:55:28.615Z,97631.91
2022-07-25T16:57:56.270Z,97628.44
2022-07-25T17:00:23.632Z,97637.84
2022-07-25T17:02:51.246Z,97637.66
2022-07-25T17:05:18.504Z,97630.78
2022-07-25T17:07:47.047Z,97633.72
2022-07-25T17:10:14.035Z,97634.44
2022-07-25T17:12:41.307Z,97634.44
2022-07-25T17:15:09.524Z,97629.78
2022-07-25T17:17:36.890Z,97640.16
2022-07-25T17:20:05.998Z,97635.97
2022-07-25T17:22:33.976Z,97637.94
2022-07-25T17:25:00.981Z,97645.41
2022-07-25T17:27:30.363Z,97646.50
2022-07-25T17:29:57.382Z,97644.84
2022-07-25T17:32:29.707Z,97650.81
2022-07-25T17:34:59.511Z,97652.50
2022-07-25T17:37:27.845Z,97648.78
2022-07-25T17:39:56.240Z,97638.16
2022-07-25T17:42:24.334Z,97643.75
2022-07-25T17:44:52.634Z,97649.25
2022-07-25T17:47:19.768Z,97646.47
2022-07-25T17:49:47.637Z,97646.44
2022-07-25T17:52:16.064Z,97645.56
2022-07-25T17:54:43.955Z,97642.22
2022-07-25T17:57:11.588Z,97635.97
2022-07-25T17:59:38.845Z,97643.53
2022-07-25T18:02:06.557Z,97640.78
2022-07-25T18:04:34.008Z,97640.66
2022-07-25T18:07:01.087Z,97634.88
2022-07-25T18:09:28.701Z,97637.50
2022-07-25T18:11:55.726Z,97642.78
2022-07-25T18:14:23.132Z,97643.91
2022-07-25T18:16:50.369Z,97651.69
2022-07-25T18:19:17.609Z,97640.38
2022-07-25T18:21:46.644Z,97651.63
2022-07-25T18:24:14.396Z,97655.28
2022-07-25T18:26:41.392Z,97650.34
2022-07-25T18:29:09.732Z,97652.31
2022-07-25T18:31:37.708Z,97654.84
2022-07-25T18:34:05.601Z,97656.56
2022-07-25T18:36:34.443Z,97660.22
2022-07-25T18:39:02.183Z,97669.63
2022-07-25T18:41:30.223Z,97664.91
2022-07-25T18:43:58.493Z,97665.75
2022-07-25T18:46:25.849Z,97669.91
2022-07-25T18:48:53.749Z,97684.59
2022-07-25T18:51:21.373Z,97678.16
2022-07-25T18:53:48.929Z,97677.84
2022-07-25T18:56:16.829Z,97684.19
2022-07-25T18:58:45.886Z,97694.38
2022-07-25T19:01:13.436Z,97689.59
2022-07-25T19:03:40.993Z,97694.25
2022-07-25T19:06:09.462Z,97697.78
2022-07-25T19:08:37.881Z,97702.41
2022-07-25T19:11:04.943Z,97696.16
2022-07-25T19:13:49.066Z,97706.06
2022-07-25T19:16:20.053Z,97705.13
2022-07-25T19:18:47.580Z,97699.53
2022-07-25T19:21:15.594Z,97697.72
2022-07-25T19:23:48.303Z,97711.50
2022-07-25T19:26:18.104Z,97712.78
2022-07-25T19:28:45.401Z,97713.59
2022-07-25T19:31:14.892Z,97709.31
2022-07-25T19:33:42.254Z,97713.72
2022-07-25T19:36:10.777Z,97720.63
2022-07-25T19:38:37.990Z,97718.31
2022-07-25T19:41:05.338Z,97723.53
2022-07-25T19:43:33.165Z,97710.19
2022-07-25T19:46:00.526Z,97711.81
2022-07-25T19:48:27.523Z,97718.63
2022-07-25T19:50:55.211Z,97719.72
2022-07-25T19:53:28.083Z,97720.22
2022-07-25T19:55:56.210Z,97722.94
2022-07-25T19:58:23.266Z,97716.44
2022-07-25T20:00:50.890Z,97724.94
2022-07-25T20:03:23.104Z,97722.03
2022-07-25T20:05:51.307Z,97721.47
2022-07-25T20:08:19.980Z,97720.72
2022-07-25T20:10:48.410Z,97727.59
2022-07-25T20:13:15.529Z,97729.94
2022-07-25T20:15:43.572Z,97726.56
2022-07-25T20:18:12.916Z,97726.41
2022-07-25T20:20:44.987Z,97729.13
2022-07-25T20:23:12.036Z,97733.13
2022-07-25T20:25:40.802Z,97731.06
2022-07-25T20:28:08.371Z,97723.41
2022-07-25T20:30:35.774Z,97728.94
2022-07-25T20:33:05.288Z,97730.81
2022-07-25T20:35:39.082Z,97727.94
2022-07-25T20:38:09.456Z,97732.81
2022-07-25T20:40:49.783Z,97733.69
2022-07-25T20:43:17.741Z,97727.97
2022-07-25T20:45:45.051Z,97730.53
2022-07-25T20:48:15.348Z,97735.38
2022-07-25T20:50:43.918Z,97730.41
2022-07-25T20:53:11.279Z,97735.22
2022-07-25T20:55:38.408Z,97740.47
2022-07-25T20:58:06.433Z,97732.06
2022-07-25T21:00:33.504Z,97731.94
2022-07-25T21:03:02.308Z,97740.84
2022-07-25T21:05:29.870Z,97744.22
2022-07-25T21:07:57.263Z,97748.06
2022-07-25T21:10:24.892Z,97751.44
2022-07-25T21:12:53.213Z,97750.25
2022-07-25T21:15:20.220Z,97746.13
2022-07-25T21:17:47.523Z,97748.50
2022-07-25T21:20:15.892Z,97750.53
2022-07-25T21:22:44.515Z,97751.06
2022-07-25T21:25:11.660Z,97746.34
2022-07-25T21:27:40.081Z,97750.78
2022-07-25T21:30:09.338Z,97752.81
2022-07-25T21:32:36.855Z,97759.91
2022-07-25T21:35:05.845Z,97758.06
2022-07-25T21:37:34.757Z,97756.16
2022-07-25T21:40:01.998Z,97754.09
2022-07-25T21:42:30.529Z,97761.81
2022-07-25T21:44:57.527Z,97767.69
2022-07-25T21:47:24.899Z,97766.69
2022-07-25T21:50:10.350Z,97766.09
2022-07-25T21:52:40.318Z,97763.44
2022-07-25T21:55:08.158Z,97759.59
2022-07-25T21:57:35.833Z,97762.97
2022-07-25T22:00:06.907Z,97760.81
2022-07-25T22:02:43.728Z,97764.03
2022-07-25T22:05:15.232Z,97766.81
2022-07-25T22:07:43.766Z,97768.00
2022-07-25T22:10:13.416Z,97758.91
2022-07-25T22:12:41.849Z,97768.00
2022-07-25T22:15:12.235Z,97758.69
2022-07-25T22:17:49.068Z,97764.19
2022-07-25T22:20:19.616Z,97756.84
2022-07-25T22:22:48.379Z,97770.63
2022-07-25T22:25:17.058Z,97766.44
2022-07-25T22:27:44.624Z,97763.31
2022-07-25T22:30:18.441Z,97764.38
2022-07-25T22:32:50.435Z,97769.88
2022-07-25T22:35:18.439Z,97767.56
2022-07-25T22:37:45.992Z,97765.16
2022-07-25T22:40:15.184Z,97768.69
2022-07-25T22:42:42.172Z,97763.75
2022-07-25T22:45:10.095Z,97765.66
2022-07-25T22:47:37.724Z,97767.81
2022-07-25T22:50:06.129Z,97758.69
2022-07-25T22:52:35.684Z,97764.88
2022-07-25T22:55:03.469Z,97757.38
2022-07-25T22:57:30.430Z,97752.72
2022-07-25T23:00:08.508Z,97759.28
2022-07-25T23:02:36.390Z,97758.53
2022-07-25T23:05:04.500Z,97752.88
2022-07-25T23:07:32.091Z,97751.66
2022-07-25T23:09:59.404Z,97752.94
2022-07-25T23:12:27.095Z,97749.41
2022-07-25T23:14:56.168Z,97756.84
2022-07-25T23:17:24.816Z,97762.94
2022-07-25T23:19:53.344Z,97759.97
2022-07-25T23:22:23.747Z,97761.50
2022-07-25T23:24:51.144Z,97748.50
2022-07-25T23:27:18.308Z,97754.00
2022-07-25T23:29:48.198Z,97741.78
2022-07-25T23:32:15.249Z,97753.16
2022-07-25T23:34:43.056Z,97748.75
2022-07-25T23:37:10.446Z,97740.88
2022-07-25T23:39:37.772Z,97743.38
2022-07-25T23:42:04.874Z,97737.88
2022-07-25T23:44:33.607Z,97749.75
2022-07-25T23:47:04.030Z,97733.69
2022-07-25T23:49:35.000Z,97739.78
2022-07-25T23:52:02.335Z,97740.41
2022-07-25T23:54:29.888Z,97735.38
2022-07-25T23:56:56.945Z,97741.31
2022-07-25T23:59:24.783Z,97737.97
